Time;durP1;ratioP1;P1;durP2;ratioP2;P2;SDS_P1;SDS_P2;PMS_P1;PMS_P2;Temp;Humidity;BMP_temperature;BMP_pressure;BME280_temperature;BME280_humidity;BME280_pressure;Samples;Min_cycle;Max_cycle;Signal;HPM_P1;HPM_P2
2021/05/25 00:00:31;;;;;;;10.80;6.05;;;;;;;17.03;86.20;95608.41;5066694;28;20044;-66
2021/05/25 00:03:00;;;;;;;6.68;5.50;;;;;;;17.02;86.38;95598.16;5071769;28;20460;-66
2021/05/25 00:05:30;;;;;;;7.70;6.40;;;;;;;16.94;87.30;95600.22;5071270;28;20044;-66
2021/05/25 00:07:57;;;;;;;6.32;5.60;;;;;;;16.88;87.50;95590.69;5067864;28;20143;-66
2021/05/25 00:10:30;;;;;;;7.50;5.90;;;;;;;17.00;87.18;95601.81;5068160;28;20625;-66
2021/05/25 00:12:59;;;;;;;8.23;7.22;;;;;;;16.95;87.90;95599.16;5067684;28;20051;-66
2021/05/25 00:15:28;;;;;;;10.00;6.50;;;;;;;16.87;88.14;95599.63;5069640;28;20044;-66
2021/05/25 00:17:55;;;;;;;11.55;7.28;;;;;;;16.91;88.02;95599.91;5066425;28;20040;-66
2021/05/25 00:20:23;;;;;;;7.45;5.63;;;;;;;16.89;88.35;95602.81;5067756;28;20044;-66
2021/05/25 00:22:51;;;;;;;11.00;6.72;;;;;;;16.79;88.81;95587.69;5070209;28;21255;-66
2021/05/25 00:25:19;;;;;;;11.20;6.80;;;;;;;16.83;89.06;95593.25;5069101;28;20040;-66
2021/05/25 00:27:47;;;;;;;10.73;6.70;;;;;;;16.75;89.60;95591.09;5068737;28;20041;-66
2021/05/25 00:30:18;;;;;;;10.18;6.45;;;;;;;16.73;89.89;95587.91;5049268;28;20048;-66
2021/05/25 00:32:45;;;;;;;7.70;6.90;;;;;;;16.69;90.18;95581.53;5047850;28;20498;-66
2021/05/25 00:35:13;;;;;;;10.30;7.47;;;;;;;16.56;90.16;95573.03;5065599;28;20074;-66
2021/05/25 00:37:41;;;;;;;8.02;7.03;;;;;;;16.67;89.72;95584.44;5066191;28;20048;-66
2021/05/25 00:40:10;;;;;;;9.40;6.93;;;;;;;16.59;90.39;95588.31;5067770;28;20051;-67
2021/05/25 00:42:37;;;;;;;12.15;7.40;;;;;;;16.53;90.71;95581.44;5068923;28;20643;-66
2021/05/25 00:45:06;;;;;;;10.13;6.57;;;;;;;16.50;90.84;95592.44;5046776;28;20198;-66
2021/05/25 00:47:36;;;;;;;10.13;7.18;;;;;;;16.44;91.32;95580.31;5067100;28;20043;-66
2021/05/25 00:50:12;;;;;;;10.93;7.60;;;;;;;16.36;92.30;95578.13;5065529;28;20082;-66
2021/05/25 00:52:43;;;;;;;9.70;6.57;;;;;;;16.38;92.07;95570.78;5065040;28;20102;-66
2021/05/25 00:55:22;;;;;;;11.90;7.35;;;;;;;16.36;91.95;95557.09;5068643;28;20025;-66
2021/05/25 00:57:51;;;;;;;9.85;6.50;;;;;;;16.39;91.36;95553.97;5068415;28;20044;-66
2021/05/25 01:00:22;;;;;;;13.80;6.80;;;;;;;16.30;92.00;95547.56;5069237;28;20045;-66
2021/05/25 01:02:49;;;;;;;11.68;6.57;;;;;;;16.19;92.52;95547.47;5065601;28;20040;-66
2021/05/25 01:05:16;;;;;;;9.88;6.40;;;;;;;16.24;92.07;95550.16;5071206;28;20086;-66
2021/05/25 01:07:43;;;;;;;12.65;7.30;;;;;;;16.20;91.85;95543.78;5068347;28;20032;-66
2021/05/25 01:10:12;;;;;;;8.60;6.55;;;;;;;16.22;91.81;95557.50;5064267;28;20459;-66
2021/05/25 01:12:56;;;;;;;7.07;6.22;;;;;;;16.23;91.64;95551.19;5064928;28;20114;-67
2021/05/25 01:15:24;;;;;;;8.27;6.30;;;;;;;16.19;91.85;95546.69;5067667;28;20041;-66
2021/05/25 01:17:55;;;;;;;12.95;7.70;;;;;;;16.07;92.10;95538.94;5065267;28;20060;-66
2021/05/25 01:20:24;;;;;;;10.73;6.93;;;;;;;16.08;92.06;95551.06;5065338;28;20123;-66
2021/05/25 01:22:55;;;;;;;9.05;6.55;;;;;;;16.03;91.86;95564.13;5048675;28;20159;-66
2021/05/25 01:25:23;;;;;;;9.07;6.70;;;;;;;16.19;91.58;95596.63;5067127;28;20055;-66
2021/05/25 01:27:57;;;;;;;14.82;7.15;;;;;;;16.13;91.82;95590.50;5064564;28;20115;-67
2021/05/25 01:30:26;;;;;;;11.90;6.55;;;;;;;16.13;91.55;95590.50;5068945;28;20493;-66
2021/05/25 01:32:53;;;;;;;8.60;5.63;;;;;;;16.07;92.17;95591.50;5049649;28;20066;-66
2021/05/25 01:35:23;;;;;;;8.52;6.57;;;;;;;16.08;91.74;95584.41;5068458;28;20055;-66
2021/05/25 01:37:51;;;;;;;10.32;6.85;;;;;;;15.98;91.96;95577.22;5068326;28;20482;-66
2021/05/25 01:40:19;;;;;;;14.45;7.03;;;;;;;16.01;91.62;95576.72;5067286;28;20036;-66
2021/05/25 01:42:46;;;;;;;9.45;6.70;;;;;;;15.88;92.77;95579.72;5048763;28;20503;-66
2021/05/25 01:45:16;;;;;;;9.82;7.10;;;;;;;15.81;92.21;95587.78;5046847;28;20051;-67
2021/05/25 01:47:44;;;;;;;11.20;6.75;;;;;;;15.74;92.49;95579.28;5064924;28;20127;-67
2021/05/25 01:50:14;;;;;;;10.40;6.97;;;;;;;15.72;92.53;95568.19;5066341;28;20036;-66
2021/05/25 01:52:47;;;;;;;10.07;6.80;;;;;;;15.85;92.37;95579.16;5066563;28;20436;-67
2021/05/25 01:55:23;;;;;;;9.02;6.28;;;;;;;15.70;93.09;95565.03;5069643;28;20037;-66
2021/05/25 01:57:50;;;;;;;13.45;6.70;;;;;;;15.61;93.18;95557.59;5069958;28;20075;-66
2021/05/25 02:00:17;;;;;;;12.80;7.15;;;;;;;15.44;93.98;95547.13;5069390;28;20048;-66
2021/05/25 02:02:44;;;;;;;9.13;6.53;;;;;;;15.41;94.69;95541.59;5073826;28;20051;-66
2021/05/25 02:05:11;;;;;;;10.30;6.55;;;;;;;15.41;94.05;95552.09;5069255;28;20044;-66
2021/05/25 02:07:38;;;;;;;7.88;6.72;;;;;;;15.36;94.25;95554.63;5071064;28;20040;-66
2021/05/25 02:10:06;;;;;;;12.18;6.57;;;;;;;15.36;93.81;95571.19;5068365;28;20049;-66
2021/05/25 02:12:32;;;;;;;7.60;6.03;;;;;;;15.41;93.59;95573.91;5070205;28;20578;-66
2021/05/25 02:15:00;;;;;;;8.43;6.30;;;;;;;15.45;93.03;95569.75;5072581;28;20114;-66
2021/05/25 02:17:27;;;;;;;11.98;6.53;;;;;;;15.41;93.40;95558.16;5069943;28;20040;-66
2021/05/25 02:19:53;;;;;;;10.95;6.15;;;;;;;15.36;93.02;95555.44;5071655;28;20490;-66
2021/05/25 02:22:20;;;;;;;12.38;6.22;;;;;;;15.36;92.78;95558.06;5071521;28;20418;-66
2021/05/25 02:24:48;;;;;;;11.52;6.72;;;;;;;15.32;93.20;95553.53;5072664;28;20413;-67
2021/05/25 02:27:14;;;;;;;17.55;8.18;;;;;;;15.29;93.47;95549.59;5068181;28;20044;-67
2021/05/25 02:29:41;;;;;;;7.30;6.28;;;;;;;15.28;93.15;95550.59;5071669;28;20050;-66
2021/05/25 02:32:08;;;;;;;7.30;5.97;;;;;;;15.22;93.02;95543.72;5067042;28;20068;-66
2021/05/25 02:34:35;;;;;;;10.20;5.60;;;;;;;15.29;93.18;95549.59;5069731;28;20044;-66
2021/05/25 02:37:01;;;;;;;9.25;6.43;;;;;;;15.27;93.12;95546.41;5074148;28;20112;-66
2021/05/25 02:39:28;;;;;;;10.45;6.28;;;;;;;15.23;93.52;95561.03;5070586;28;20543;-66
2021/05/25 02:41:55;;;;;;;10.27;6.63;;;;;;;15.20;93.16;95561.53;5069698;28;20470;-66
2021/05/25 02:44:22;;;;;;;11.23;6.35;;;;;;;15.13;93.64;95555.66;5071205;28;20429;-66
2021/05/25 02:46:49;;;;;;;8.57;6.22;;;;;;;15.00;94.54;95541.84;5069631;28;20048;-66
2021/05/25 02:49:15;;;;;;;10.07;6.30;;;;;;;14.93;93.94;95541.22;5072329;28;20044;-66
2021/05/25 02:51:42;;;;;;;12.30;6.95;;;;;;;14.93;94.71;95553.53;5071010;28;20510;-66
2021/05/25 02:54:09;;;;;;;8.57;6.70;;;;;;;14.98;94.13;95553.59;5070641;28;20032;-66
2021/05/25 02:56:36;;;;;;;11.13;6.78;;;;;;;14.99;94.11;95556.00;5070010;28;20533;-66
2021/05/25 02:59:03;;;;;;;7.43;6.35;;;;;;;15.00;93.36;95552.34;5069118;28;20105;-66
2021/05/25 03:01:30;;;;;;;12.43;7.15;;;;;;;14.97;93.40;95558.06;5070067;28;20465;-67
2021/05/25 03:03:57;;;;;;;9.95;6.55;;;;;;;14.98;93.00;95554.41;5070730;28;20409;-67
2021/05/25 03:06:23;;;;;;;12.63;6.65;;;;;;;14.94;93.42;95553.28;5069301;28;20043;-67
2021/05/25 03:08:50;;;;;;;13.02;6.43;;;;;;;14.95;93.13;95560.13;5069685;28;20058;-67
2021/05/25 03:11:17;;;;;;;7.55;6.40;;;;;;;14.93;93.47;95556.97;5072174;28;20509;-66
2021/05/25 03:13:44;;;;;;;19.20;6.78;;;;;;;14.93;93.42;95566.63;5069254;28;20053;-67
2021/05/25 03:16:11;;;;;;;14.45;5.53;;;;;;;14.91;93.49;95564.28;5069347;28;20048;-66
2021/05/25 03:18:37;;;;;;;12.65;5.50;;;;;;;14.97;93.28;95568.56;5051584;28;20052;-67
2021/05/25 03:21:04;;;;;;;14.80;6.35;;;;;;;14.99;92.95;95571.72;5066766;28;20044;-67
2021/05/25 03:23:31;;;;;;;10.57;6.13;;;;;;;15.06;92.64;95567.09;5067611;28;20044;-66
2021/05/25 03:26:00;;;;;;;9.65;7.65;;;;;;;15.15;92.13;95569.34;5066060;28;20048;-66
2021/05/25 03:28:27;;;;;;;16.10;7.18;;;;;;;15.17;91.74;95562.00;5069208;28;20040;-66
2021/05/25 03:30:55;;;;;;;8.40;6.65;;;;;;;15.17;92.15;95564.63;5068347;28;20040;-67
2021/05/25 03:33:22;;;;;;;8.23;6.45;;;;;;;15.13;91.57;95560.91;5067970;28;20047;-67
2021/05/25 03:35:49;;;;;;;13.13;6.53;;;;;;;15.19;91.79;95559.94;5067603;28;20072;-67
2021/05/25 03:38:16;;;;;;;13.27;5.95;;;;;;;15.20;91.01;95566.78;5073522;28;20045;-67
2021/05/25 03:40:43;;;;;;;11.50;6.20;;;;;;;15.21;91.45;95563.09;5071060;28;20059;-66
2021/05/25 03:43:09;;;;;;;8.48;5.75;;;;;;;15.22;90.61;95569.97;5068794;28;20493;-66
2021/05/25 03:45:36;;;;;;;12.10;5.03;;;;;;;15.25;90.65;95570.28;5068298;28;20044;-66
2021/05/25 03:48:03;;;;;;;8.07;5.50;;;;;;;15.21;90.33;95563.09;5068318;28;20506;-66
2021/05/25 03:50:30;;;;;;;11.85;4.85;;;;;;;15.25;90.95;95569.44;5071541;28;20549;-66
2021/05/25 03:52:58;;;;;;;10.10;4.88;;;;;;;15.24;91.10;95573.13;5069474;28;20036;-66
2021/05/25 04:00:46;;;;;;;9.23;3.97;;;;;;;15.34;89.78;95573.28;5068336;28;20040;-67
2021/05/25 04:03:13;;;;;;;10.45;4.65;;;;;;;15.38;89.32;95563.88;5068931;28;20044;-67
2021/05/25 04:05:40;;;;;;;8.10;3.83;;;;;;;15.39;89.23;95583.03;5065975;28;20036;-67
2021/05/25 04:08:09;;;;;;;5.72;4.10;;;;;;;15.45;88.94;95590.75;5068100;28;20120;-67
2021/05/25 04:10:36;;;;;;;10.20;4.22;;;;;;;15.57;88.22;95600.31;5066241;28;20044;-66
2021/05/25 04:13:03;;;;;;;7.80;4.20;;;;;;;15.55;89.13;95605.03;5065051;28;20064;-66
2021/05/25 04:15:33;;;;;;;5.28;4.00;;;;;;;15.60;88.82;95591.97;5065160;28;20044;-66
2021/05/25 04:18:01;;;;;;;9.95;4.47;;;;;;;15.67;88.48;95588.13;5066028;28;20124;-67
2021/05/25 04:20:28;;;;;;;14.82;5.72;;;;;;;15.83;88.28;95612.78;5067572;28;20433;-67
2021/05/25 04:22:57;;;;;;;8.60;4.68;;;;;;;15.89;88.81;95615.47;5049710;28;20044;-66
2021/05/25 04:25:24;;;;;;;9.70;4.53;;;;;;;15.86;88.07;95612.28;5067423;28;20064;-66
2021/05/25 04:27:51;;;;;;;11.70;4.70;;;;;;;15.89;88.03;95578.69;5065634;28;20055;-66
2021/05/25 04:30:18;;;;;;;9.57;4.28;;;;;;;15.98;87.55;95571.97;5067116;28;20742;-67
2021/05/25 04:32:46;;;;;;;11.27;4.57;;;;;;;16.16;86.58;95579.50;5062859;28;20044;-66
2021/05/25 04:35:13;;;;;;;15.15;4.63;;;;;;;16.17;86.56;95580.28;5064744;28;20041;-67
2021/05/25 04:37:40;;;;;;;7.30;4.35;;;;;;;16.21;86.86;95587.44;5046667;28;20041;-67
2021/05/25 04:40:07;;;;;;;5.93;4.63;;;;;;;16.19;86.56;95602.66;5066045;28;20112;-66
2021/05/25 04:42:36;;;;;;;5.47;3.90;;;;;;;16.29;85.53;95609.06;5069880;28;20418;-67
2021/05/25 04:45:06;;;;;;;5.88;3.40;;;;;;;16.34;86.29;95617.00;5047577;28;20055;-67
2021/05/25 04:47:33;;;;;;;6.35;3.75;;;;;;;16.42;84.10;95621.78;5065297;28;20056;-66
2021/05/25 04:50:00;;;;;;;5.45;3.40;;;;;;;16.43;84.62;95615.50;5065777;28;20476;-67
2021/05/25 04:52:26;;;;;;;5.95;4.18;;;;;;;16.41;84.59;95612.34;5065402;28;20041;-67
2021/05/25 04:54:55;;;;;;;5.47;3.60;;;;;;;16.39;84.91;95615.22;5066747;28;20433;-67
2021/05/25 04:57:23;;;;;;;8.60;3.55;;;;;;;16.39;83.67;95635.47;5066047;28;20159;-66
2021/05/25 04:59:50;;;;;;;5.78;3.75;;;;;;;16.52;83.79;95640.31;5065351;28;20044;-67
2021/05/25 05:02:17;;;;;;;5.15;3.45;;;;;;;16.48;83.92;95628.72;5065226;28;20545;-67
2021/05/25 05:04:44;;;;;;;6.07;3.72;;;;;;;16.42;84.57;95608.66;5065631;28;20040;-67
2021/05/25 05:07:10;;;;;;;6.95;3.80;;;;;;;16.62;84.60;95619.38;5064973;28;20048;-66
2021/05/25 05:09:37;;;;;;;4.32;3.30;;;;;;;16.67;84.51;95618.63;5066441;28;20041;-66
2021/05/25 05:12:05;;;;;;;4.20;3.63;;;;;;;16.66;83.90;95606.53;5064716;28;20036;-67
2021/05/25 05:14:35;;;;;;;7.78;3.75;;;;;;;16.68;82.37;95616.78;5064455;28;20053;-67
2021/05/25 05:17:02;;;;;;;6.43;3.45;;;;;;;16.80;83.72;95620.06;5065108;28;20572;-67
2021/05/25 05:19:28;;;;;;;3.95;3.25;;;;;;;16.93;82.00;95627.56;5065359;28;20047;-66
2021/05/25 05:21:55;;;;;;;4.50;3.58;;;;;;;16.97;82.56;95622.59;5066620;28;20418;-67
2021/05/25 05:24:22;;;;;;;5.05;3.30;;;;;;;17.10;82.11;95626.63;5065880;28;20079;-67
2021/05/25 05:26:49;;;;;;;9.43;3.53;;;;;;;17.28;82.13;95615.69;5065150;28;20040;-66
2021/05/25 05:29:16;;;;;;;8.68;3.22;;;;;;;17.57;82.62;95623.22;5063182;28;20075;-67
2021/05/25 05:31:44;;;;;;;6.82;3.75;;;;;;;17.48;78.55;95619.50;5064335;28;20044;-66
2021/05/25 05:34:12;;;;;;;6.70;3.35;;;;;;;17.37;80.16;95629.97;5063834;28;20044;-67
2021/05/25 05:36:40;;;;;;;8.38;3.10;;;;;;;17.24;79.01;95625.16;5069581;28;20091;-67
2021/05/25 05:39:07;;;;;;;4.43;3.17;;;;;;;17.24;79.68;95617.25;5064287;28;20046;-66
2021/05/25 05:41:34;;;;;;;8.32;3.60;;;;;;;17.20;80.29;95629.34;5066144;28;20033;-67
2021/05/25 05:44:01;;;;;;;7.97;3.40;;;;;;;17.17;80.27;95614.81;5064880;28;20040;-67
2021/05/25 05:46:27;;;;;;;4.00;3.08;;;;;;;17.19;80.89;95622.47;5048576;28;20047;-66
2021/05/25 05:48:55;;;;;;;11.65;3.60;;;;;;;17.03;81.09;95628.69;5064613;28;20041;-66
2021/05/25 05:51:22;;;;;;;11.40;3.83;;;;;;;17.00;80.70;95636.03;5066373;28;20115;-67
2021/05/25 05:53:50;;;;;;;5.85;2.65;;;;;;;16.98;80.76;95634.72;5067884;28;20049;-67
2021/05/25 05:56:19;;;;;;;6.15;3.53;;;;;;;16.98;82.00;95627.59;5064979;28;20106;-67
2021/05/25 05:58:46;;;;;;;5.68;3.38;;;;;;;17.17;81.91;95629.84;5063718;28;20048;-67
2021/05/25 06:01:13;;;;;;;3.78;3.33;;;;;;;17.19;80.55;95623.25;5064894;28;20044;-67
2021/05/25 06:03:40;;;;;;;6.45;3.40;;;;;;;17.43;79.80;95633.44;5067664;28;20062;-66
2021/05/25 06:06:07;;;;;;;4.93;3.13;;;;;;;17.46;78.95;95613.69;5064089;28;20803;-66
2021/05/25 06:08:34;;;;;;;5.30;3.38;;;;;;;17.71;78.58;95629.63;5062751;28;20143;-66
2021/05/25 06:11:01;;;;;;;3.17;2.90;;;;;;;17.89;78.62;95635.53;5044167;28;20044;-66
2021/05/25 06:13:28;;;;;;;6.55;3.83;;;;;;;17.99;77.67;95635.59;5062561;28;20067;-67
2021/05/25 06:16:03;;;;;;;6.18;3.33;;;;;;;17.95;77.80;95618.69;5064343;28;20029;-67
2021/05/25 06:18:32;;;;;;;5.93;3.42;;;;;;;18.06;77.16;95622.97;5062004;28;20047;-66
2021/05/25 06:21:01;;;;;;;10.60;3.30;;;;;;;18.19;76.04;95626.94;5063225;28;20121;-66
2021/05/25 06:23:30;;;;;;;6.50;2.90;;;;;;;18.41;76.59;95621.47;5063200;28;20102;-66
2021/05/25 06:25:59;;;;;;;5.47;3.13;;;;;;;18.57;75.06;95624.13;5063366;28;20032;-67
2021/05/25 06:28:31;;;;;;;4.05;2.67;;;;;;;18.57;75.03;95613.59;5067953;28;20124;-66
2021/05/25 06:30:59;;;;;;;5.90;2.85;;;;;;;18.84;74.65;95608.09;5063317;28;20046;-67
2021/05/25 06:33:27;;;;;;;6.57;2.83;;;;;;;18.89;74.47;95611.53;5064582;28;20054;-66
2021/05/25 06:35:54;;;;;;;5.03;2.88;;;;;;;19.10;73.27;95616.78;5050680;28;20032;-67
2021/05/25 06:38:22;;;;;;;7.28;3.28;;;;;;;19.18;72.86;95608.34;5064638;28;20041;-67
2021/05/25 06:40:49;;;;;;;6.68;3.03;;;;;;;19.22;74.33;95606.75;5067126;28;20055;-67
2021/05/25 06:43:15;;;;;;;5.32;2.53;;;;;;;19.40;72.16;95612.53;5070446;28;20040;-67
2021/05/25 06:45:42;;;;;;;3.47;2.22;;;;;;;19.54;72.97;95612.78;5067934;28;20459;-67
2021/05/25 06:48:09;;;;;;;5.43;2.80;;;;;;;19.66;71.66;95603.47;5069192;28;20037;-67
2021/05/25 06:50:37;;;;;;;6.20;2.90;;;;;;;19.81;71.41;95609.81;5065904;28;20166;-67
2021/05/25 06:53:04;;;;;;;3.75;2.72;;;;;;;19.86;72.48;95607.94;5068571;28;20047;-67
2021/05/25 06:55:31;;;;;;;5.25;3.08;;;;;;;19.89;69.77;95601.28;5068880;28;20204;-67
2021/05/25 06:57:58;;;;;;;10.32;2.80;;;;;;;19.79;69.94;95601.31;5068213;28;20040;-67
2021/05/25 07:00:25;;;;;;;5.63;2.92;;;;;;;19.78;70.38;95599.75;5069873;28;20060;-67
2021/05/25 07:02:56;;;;;;;5.88;3.08;;;;;;;19.88;72.45;95586.50;5067725;28;20052;-67
2021/05/25 07:05:23;;;;;;;3.53;2.35;;;;;;;19.86;71.77;95585.97;5070754;28;20040;-67
2021/05/25 07:07:50;;;;;;;4.57;3.20;;;;;;;20.01;68.91;95583.28;5069777;28;20050;-67
2021/05/25 07:10:17;;;;;;;5.93;3.10;;;;;;;19.96;69.75;95558.72;5066867;28;20049;-67
2021/05/25 07:12:44;;;;;;;12.27;3.30;;;;;;;20.07;68.65;95575.31;5067618;28;20059;-66
2021/05/25 07:15:11;;;;;;;6.65;3.25;;;;;;;20.13;70.18;95584.78;5068637;28;20512;-66
2021/05/25 07:17:46;;;;;;;9.98;3.25;;;;;;;20.15;69.44;95577.38;5067961;28;20455;-66
2021/05/25 07:20:13;;;;;;;5.95;2.95;;;;;;;20.37;70.04;95569.06;5067585;28;20044;-66
2021/05/25 07:22:40;;;;;;;5.57;3.03;;;;;;;20.28;69.54;95568.06;5049986;28;20558;-66
2021/05/25 07:25:08;;;;;;;12.70;3.15;;;;;;;20.50;70.38;95575.59;5068150;28;20577;-66
2021/05/25 07:27:36;;;;;;;8.73;3.00;;;;;;;20.23;69.21;95563.59;5067383;28;20041;-66
2021/05/25 07:30:06;;;;;;;6.85;3.10;;;;;;;20.21;69.04;95565.72;5067198;28;20354;-67
2021/05/25 07:32:33;;;;;;;5.43;2.72;;;;;;;20.33;69.85;95547.66;5067368;28;20048;-66
2021/05/25 07:35:02;;;;;;;5.13;2.97;;;;;;;20.47;69.27;95554.97;5066415;28;20043;-67
2021/05/25 07:37:29;;;;;;;4.00;2.80;;;;;;;20.09;68.14;95536.16;5067712;28;20042;-66
2021/05/25 07:39:57;;;;;;;6.18;2.92;;;;;;;20.11;69.86;95531.38;5067032;28;20094;-66
2021/05/25 07:42:25;;;;;;;8.63;4.30;;;;;;;20.43;69.63;95525.63;5069659;28;20127;-66
2021/05/25 07:44:53;;;;;;;6.93;2.97;;;;;;;20.56;68.68;95550.66;5050879;28;20474;-67
2021/05/25 07:47:20;;;;;;;6.63;3.03;;;;;;;20.69;67.85;95552.72;5067261;28;20072;-66
2021/05/25 07:49:46;;;;;;;5.25;2.47;;;;;;;20.79;67.85;95549.19;5066012;28;20044;-66
2021/05/25 07:52:14;;;;;;;5.47;2.47;;;;;;;21.02;68.86;95558.25;5066356;28;20040;-66
2021/05/25 07:54:41;;;;;;;3.55;2.72;;;;;;;21.10;67.74;95560.28;5066896;28;20562;-67
2021/05/25 07:57:08;;;;;;;9.55;3.20;;;;;;;21.27;66.11;95559.09;5067178;28;20047;-66
2021/05/25 07:59:36;;;;;;;7.45;3.85;;;;;;;21.29;68.10;95551.63;5051034;28;20048;-67
2021/05/25 08:02:03;;;;;;;6.25;3.42;;;;;;;21.35;67.83;95542.56;5067487;28;20044;-66
2021/05/25 08:04:30;;;;;;;27.33;4.10;;;;;;;21.74;65.37;95544.25;5068510;28;20073;-66
2021/05/25 08:06:57;;;;;;;3.47;3.15;;;;;;;22.07;66.12;95558.41;5066628;28;20045;-67
2021/05/25 08:09:24;;;;;;;6.35;2.72;;;;;;;22.06;64.22;95553.41;5067597;28;20044;-66
2021/05/25 08:11:51;;;;;;;4.47;2.92;;;;;;;21.98;64.00;95548.72;5065172;28;20479;-66
2021/05/25 08:14:18;;;;;;;14.05;3.05;;;;;;;21.90;63.79;95532.38;5066029;28;20847;-67
2021/05/25 08:16:45;;;;;;;11.65;4.45;;;;;;;21.85;63.54;95542.28;5067730;28;20411;-67
2021/05/25 08:19:30;;;;;;;6.28;3.63;;;;;;;21.57;66.84;95537.56;5068962;28;20536;-67
2021/05/25 08:21:57;;;;;;;4.18;3.20;;;;;;;21.77;65.62;95535.75;5063653;28;20041;-67
2021/05/25 08:24:44;;;;;;;6.82;3.22;;;;;;;21.90;64.53;95545.66;5067157;28;20052;-67
2021/05/25 08:27:11;;;;;;;7.93;3.10;;;;;;;21.80;65.15;95529.84;5066182;28;20123;-66
2021/05/25 08:29:59;;;;;;;7.22;3.38;;;;;;;21.72;65.82;95539.25;5066350;28;20037;-66
2021/05/25 08:32:26;;;;;;;5.18;3.75;;;;;;;21.84;66.99;95540.69;5064570;28;20449;-66
2021/05/25 08:34:53;;;;;;;7.72;3.85;;;;;;;21.71;67.81;95536.88;5065987;28;20048;-66
2021/05/25 08:37:20;;;;;;;8.98;3.58;;;;;;;21.69;65.79;95528.41;5066002;28;20040;-66
2021/05/25 08:39:47;;;;;;;5.35;3.38;;;;;;;21.63;66.40;95529.56;5065720;28;20047;-66
2021/05/25 08:42:30;;;;;;;6.53;3.42;;;;;;;21.57;66.92;95521.66;5067915;28;20032;-66
2021/05/25 08:44:57;;;;;;;6.30;3.30;;;;;;;21.61;64.94;95526.38;5060254;28;20107;-67
2021/05/25 08:47:25;;;;;;;10.20;4.05;;;;;;;21.69;66.85;95517.81;5063610;28;20050;-67
2021/05/25 08:49:53;;;;;;;9.50;4.45;;;;;;;21.75;66.87;95511.38;5065054;28;20814;-66
2021/05/25 08:52:20;;;;;;;9.93;3.97;;;;;;;21.82;65.31;95521.63;5069908;28;20098;-66
2021/05/25 08:54:46;;;;;;;12.13;4.15;;;;;;;21.89;65.74;95522.84;5065841;28;20050;-66
2021/05/25 08:57:14;;;;;;;7.30;4.10;;;;;;;21.99;66.15;95521.16;5067740;28;20047;-67
2021/05/25 08:59:41;;;;;;;6.78;3.63;;;;;;;22.27;64.45;95528.22;5066134;28;20041;-66
2021/05/25 09:02:12;;;;;;;7.18;4.20;;;;;;;22.39;63.85;95529.63;5065073;28;20029;-66
2021/05/25 09:04:59;;;;;;;17.23;4.80;;;;;;;22.71;63.24;95521.66;5066520;28;20033;-67
2021/05/25 09:07:46;;;;;;;5.53;3.90;;;;;;;22.64;62.08;95525.78;5066191;28;20062;-67
2021/05/25 09:10:19;;;;;;;14.65;4.15;;;;;;;22.49;63.17;95514.31;5049322;28;20055;-67
2021/05/25 09:12:51;;;;;;;11.05;5.00;;;;;;;22.54;65.13;95510.78;5068339;28;20052;-66
2021/05/25 09:15:35;;;;;;;8.52;4.28;;;;;;;22.52;63.56;95510.28;5065496;28;20060;-67
2021/05/25 09:18:07;;;;;;;5.65;4.13;;;;;;;22.78;63.84;95515.19;5063604;28;20150;-66
2021/05/25 09:20:56;;;;;;;6.20;3.65;;;;;;;22.52;61.92;95512.94;5065547;28;20044;-67
2021/05/25 09:23:32;;;;;;;252.00;21.83;;;;;;;22.62;65.52;95515.44;5064681;28;20119;-67
2021/05/25 09:26:05;;;;;;;8.35;4.97;;;;;;;22.79;64.06;95495.53;5051522;28;20064;-66
2021/05/25 09:28:52;;;;;;;13.87;3.70;;;;;;;22.97;62.53;95510.59;5065924;28;20845;-67
2021/05/25 09:31:47;;;;;;;11.98;4.50;;;;;;;22.69;63.25;95513.19;5065874;28;20044;-66
2021/05/25 09:34:15;;;;;;;9.32;4.57;;;;;;;22.79;63.68;95511.44;5060486;28;20052;-66
2021/05/25 09:37:03;;;;;;;9.75;4.22;;;;;;;22.57;61.81;95512.88;5065645;28;20148;-66
2021/05/25 09:39:42;;;;;;;6.72;4.47;;;;;;;22.73;65.64;95510.75;5046109;28;20052;-67
2021/05/25 09:42:11;;;;;;;8.40;4.53;;;;;;;22.84;63.32;95493.56;5063132;28;20490;-67
2021/05/25 09:44:56;;;;;;;6.75;4.10;;;;;;;22.98;64.94;95493.59;5064218;28;20047;-66
2021/05/25 09:47:41;;;;;;;11.80;4.28;;;;;;;23.12;62.81;95501.63;5066352;28;20524;-67
2021/05/25 09:50:13;;;;;;;21.23;5.63;;;;;;;22.96;61.11;95501.06;5063916;28;20051;-67
2021/05/25 09:53:22;;;;;;;8.00;3.53;;;;;;;22.87;62.11;95494.84;5066534;28;20043;-66
2021/05/25 09:55:53;;;;;;;7.93;4.32;;;;;;;22.97;62.47;95505.28;4963906;28;20047;-67
2021/05/25 09:58:32;;;;;;;4.68;3.58;;;;;;;23.12;61.95;95503.47;4962213;28;20106;-66
2021/05/25 10:01:06;;;;;;;7.95;3.72;;;;;;;23.13;61.33;95492.53;5024774;28;20522;-67
2021/05/25 10:03:42;;;;;;;8.90;3.97;;;;;;;23.21;62.06;95493.72;5047611;28;20041;-66
2021/05/25 10:06:09;;;;;;;5.18;3.63;;;;;;;23.17;61.96;95484.78;5064596;28;20033;-67
2021/05/25 10:08:36;;;;;;;6.60;4.30;;;;;;;23.01;61.62;95474.41;5065084;28;20036;-66
2021/05/25 10:11:05;;;;;;;13.32;3.90;;;;;;;22.93;62.33;95475.09;5064524;28;20040;-67
2021/05/25 10:13:33;;;;;;;12.18;4.25;;;;;;;22.63;62.10;95466.56;5064019;28;20036;-66
2021/05/25 10:16:01;;;;;;;6.82;3.85;;;;;;;22.58;62.82;95481.78;5067580;28;20051;-66
2021/05/25 10:20:55;;;;;;;9.10;4.50;;;;;;;22.77;62.61;95473.78;5068510;28;20044;-66
2021/05/25 10:23:23;;;;;;;9.32;4.40;;;;;;;22.95;62.54;95456.97;5070181;28;20474;-66
2021/05/25 10:25:53;;;;;;;11.23;4.68;;;;;;;23.06;63.36;95458.38;5069163;28;20090;-66
2021/05/25 10:28:20;;;;;;;18.75;4.32;;;;;;;23.25;63.52;95460.19;5069173;28;20115;-66
2021/05/25 10:30:51;;;;;;;6.63;4.45;;;;;;;23.46;62.68;95456.03;5035574;28;20048;-66
2021/05/25 10:33:21;;;;;;;10.38;4.47;;;;;;;23.66;61.78;95451.38;5065717;28;20044;-66
2021/05/25 10:35:55;;;;;;;12.23;4.28;;;;;;;23.77;60.83;95450.06;5068495;28;20056;-67
2021/05/25 10:38:25;;;;;;;9.93;4.00;;;;;;;23.78;61.40;95446.28;5071832;28;20116;-67
2021/05/25 10:41:05;;;;;;;5.60;4.03;;;;;;;23.58;61.69;95444.09;5068381;28;20489;-67
2021/05/25 10:43:36;;;;;;;9.25;4.45;;;;;;;23.77;62.01;95450.06;5070018;28;20579;-67
2021/05/25 10:46:09;;;;;;;5.75;3.75;;;;;;;24.03;61.57;95441.53;5069772;28;20044;-66
2021/05/25 10:49:10;;;;;;;10.27;4.67;;;;;;;24.15;61.15;95444.44;5068351;28;20083;-67
2021/05/25 10:51:46;;;;;;;6.65;4.45;;;;;;;24.63;58.48;95442.25;5062711;28;20059;-66
2021/05/25 10:54:25;;;;;;;12.38;4.57;;;;;;;24.64;58.50;95422.53;5066895;28;20063;-67
2021/05/25 10:56:53;;;;;;;8.18;4.35;;;;;;;24.81;58.17;95427.91;5067681;28;20040;-67
2021/05/25 10:59:21;;;;;;;6.38;3.50;;;;;;;24.77;57.90;95418.97;5068824;28;20506;-66
2021/05/25 11:01:55;;;;;;;8.15;3.85;;;;;;;24.75;58.00;95418.50;5065750;28;20510;-67
2021/05/25 11:04:37;;;;;;;8.18;3.60;;;;;;;24.88;58.30;95412.28;5067842;28;20417;-66
2021/05/25 11:07:35;;;;;;;19.70;4.13;;;;;;;24.72;57.76;95425.25;5066319;28;20051;-67
2021/05/25 11:10:41;;;;;;;9.40;4.10;;;;;;;25.12;58.68;95427.09;5064234;28;20045;-66
2021/05/25 11:13:14;;;;;;;7.85;3.63;;;;;;;25.16;57.50;95428.06;4981513;28;20853;-67
2021/05/25 11:16:09;;;;;;;7.90;3.97;;;;;;;25.39;57.33;95412.78;4971004;28;20189;-67
2021/05/25 11:18:46;;;;;;;9.20;3.92;;;;;;;25.36;57.14;95422.16;5044739;28;20052;-67
2021/05/25 11:24:43;;;;;;;6.10;3.25;;;;;;;24.51;57.05;95405.53;5067786;28;20378;-66
2021/05/25 11:27:16;;;;;;;8.73;4.32;;;;;;;24.79;58.40;95395.47;5064200;28;20037;-67
2021/05/25 11:29:59;;;;;;;15.07;3.65;;;;;;;25.28;57.44;95398.16;5070047;28;20119;-66
2021/05/25 11:32:31;;;;;;;8.48;3.45;;;;;;;25.55;55.86;95399.75;5067982;28;20049;-66
2021/05/25 11:35:01;;;;;;;6.35;3.42;;;;;;;26.07;55.59;95389.13;5065577;28;20051;-66
2021/05/25 11:37:33;;;;;;;8.10;4.15;;;;;;;26.69;55.04;95387.13;5064813;28;20032;-67
2021/05/25 11:40:00;;;;;;;13.27;3.45;;;;;;;26.77;54.25;95383.59;5066882;28;20070;-66
2021/05/25 11:42:31;;;;;;;3.80;2.97;;;;;;;26.48;55.51;95382.44;5046790;28;20556;-67
2021/05/25 11:45:00;;;;;;;11.52;3.38;;;;;;;26.49;54.43;95375.22;5066877;28;20036;-66
2021/05/25 11:47:26;;;;;;;11.98;4.13;;;;;;;26.49;53.33;95381.34;5064101;28;20506;-66
2021/05/25 11:49:54;;;;;;;8.23;4.00;;;;;;;26.01;54.79;95387.72;5068768;28;20844;-67
2021/05/25 11:52:32;;;;;;;8.10;3.40;;;;;;;25.70;56.95;95387.88;5067978;28;20051;-67
2021/05/25 11:55:06;;;;;;;5.95;3.63;;;;;;;25.68;56.34;95398.84;5066599;28;20064;-68